NY/NJ Local METAR Reports

 

KNYC - NYC/Central Park, NY, USA
Distance from Hoboken: NE 4mi, 7km
Updated: 09/15/2019 1:51am
Partly cloudy
Partly cloudy
 Wind from varies
Wind: varies 7 mph , 11 km/h
Temperature: 72°F , 22°C
Dew Point: 66°F , 19°C
Humidity: 83%
Barometer: 30.19 inHg , 1022.4 hPa
Clouds: Partly cloudy
Visibility: 10 miles , 16 km
Cloud details: Partly cloudy 3300 ft
2019/09/15 05:51 KNYC 150551Z AUTO VRB06KT 10SM SCT033 22/19 A3019 RMK AO2 SLP213 T02220189 10233 20222 55005 $
KEWR - Newark, NJ, USA
Distance from Hoboken: WSW 8mi, 13km
Updated: 09/15/2019 1:51am
Mostly cloudy
Mostly cloudy
 Wind from WSW
Wind: WSW 5 mph , 7 km/h
Temperature: 72°F , 22°C
Dew Point: 66°F , 19°C
Humidity: 83%
Barometer: 30.16 inHg , 1021.3 hPa
Clouds: Mostly cloudy
Visibility: 10 miles , 16 km
Cloud details: Few Clouds 2200 ft
Mostly cloudy 3200 ft
Mostly cloudy 4400 ft
2019/09/15 05:51 KEWR 150551Z 24004KT 10SM FEW022 BKN032 BKN044 22/19 A3016 RMK AO2 SLP212 T02220194 10239 20217 55005
 
KLGA - NYC/La Guardia, NY, USA
Distance from Hoboken: ENE 8mi, 13km
Updated: 09/15/2019 1:51am
Partly cloudy
Partly cloudy
 Wind from SSW
Wind: SSW 6 mph , 9 km/h
Temperature: 73°F , 23°C
Dew Point: 66°F , 19°C
Humidity: 78%
Barometer: 30.15 inHg , 1021 hPa
Clouds: Partly cloudy
Visibility: 10 miles , 16 km
Cloud details: Partly cloudy 3400 ft
2019/09/15 05:51 KLGA 150551Z 21005KT 10SM SCT034 23/19 A3015 RMK AO2 SLP210 T02330189 10239 20233 56006 $
KTEB - Teterboro, NJ, USA
Distance from Hoboken: N 9mi, 14km
Updated: 09/15/2019 1:51am
Mostly cloudy
Mostly cloudy
 Wind from calm
Wind: Calm
Temperature: 70°F , 21°C
Dew Point: 66°F , 19°C
Humidity: 88%
Barometer: 30.15 inHg , 1021 hPa
Clouds: Mostly cloudy
Visibility: 10 miles , 16 km
Cloud details: Mostly cloudy 2900 ft
Mostly cloudy 9000 ft
2019/09/15 05:51 KTEB 150551Z 00000KT 10SM BKN029 BKN090 21/19 A3015 RMK AO2 SLP209 60000 T02110189 10233 20211 55006
 
KJFK - NYC/Jfk Arpt, NY, USA
Distance from Hoboken: ESE 16mi, 25km
Updated: 09/15/2019 1:51am
Overcast
Overcast
 Wind from SW
Wind: SW 7 mph , 11 km/h
Temperature: 72°F , 22°C
Dew Point: 70°F , 21°C
Humidity: 94%
Barometer: 30.17 inHg , 1021.7 hPa
Clouds: Overcast
Visibility: 10 miles , 16 km
Cloud details: Partly cloudy 4700 ft
Mostly cloudy 6500 ft
Overcast 9000 ft
2019/09/15 05:51 KJFK 150551Z 22006KT 10SM SCT047 BKN065 OVC090 22/21 A3017 RMK AO2 SLP216 T02170211 10222 20217 56006
KCDW - Caldwell, NJ, USA
Distance from Hoboken: NW 16mi, 26km
Updated: 09/15/2019 2:08am
Mist, Few clouds
Mist, Few clouds
 Wind from calm
Wind: Calm
Temperature: 66°F , 19°C
Dew Point: 66°F , 19°C
Humidity: 100%
Barometer: 30.17 inHg , 1021.7 hPa
Summary: Mist
Clouds: Few Clouds
Visibility: 1 3/4 miles , 2.8 km
Cloud details: Few Clouds 2200 ft
2019/09/15 06:08 KCDW 150608Z AUTO 00000KT 1 3/4SM BR FEW022 19/19 A3017 RMK AO2 T01940189
 
KMMU - Morristown Muni, NJ, USA
Distance from Hoboken: W 20mi, 33km
Updated: 09/15/2019 1:55am
Mist, Mostly cloudy
Mist, Mostly cloudy
 Wind from calm
Wind: Calm
Temperature: 64°F , 18°C
Dew Point: 64°F , 18°C
Humidity: 100%
Barometer: 30.16 inHg , 1021.3 hPa
Summary: Mist
Clouds: Mostly cloudy
Visibility: 5 miles , 8 km
Cloud details: Partly cloudy 600 ft
Partly cloudy 1300 ft
Mostly cloudy 4800 ft
2019/09/15 05:55 KMMU 150555Z AUTO 00000KT 5SM BR SCT006 SCT013 BKN048 18/18 A3016 RMK AO2
KHPN - White Plains, NY, USA
Distance from Hoboken: NE 28mi, 46km
Updated: 09/15/2019 1:56am
Mist, Mostly cloudy
Mist, Mostly cloudy
 Wind from calm
Wind: Calm
Temperature: 66°F , 19°C
Dew Point: 66°F , 19°C
Humidity: 100%
Barometer: 30.16 inHg , 1021.3 hPa
Summary: Mist
Clouds: Mostly cloudy
Visibility: 6 miles , 10 km
Cloud details: Mostly cloudy 2500 ft
2019/09/15 05:56 KHPN 150556Z 00000KT 6SM BR BKN025 19/19 A3016 RMK AO2 SLP210 60001 T01940189 10211 20194 56006
 
KFRG - Farmingdale, NY, USA
Distance from Hoboken: E 32mi, 52km
Updated: 09/15/2019 2:05am
Overcast
Overcast
 Wind from SSW
Wind: SSW 8 mph , 13 km/h
Temperature: 72°F , 22°C
Dew Point: 68°F , 20°C
Humidity: 88%
Barometer: 30.16 inHg , 1021.3 hPa
Clouds: Overcast
Visibility: 10 miles , 16 km
Cloud details: Partly cloudy 2800 ft
Mostly cloudy 6500 ft
Overcast 8500 ft
2019/09/15 06:05 KFRG 150605Z AUTO 21007KT 10SM SCT028 BKN065 OVC085 22/20 A3016 RMK AO2 T02170200
KSMQ - Somerville, NJ, USA
Distance from Hoboken: WSW 34mi, 55km
Updated: 09/15/2019 2:02am
Mist, Overcast
Mist, Overcast
 Wind from calm
Wind: Calm
Temperature: 66°F , 19°C
Dew Point: 64°F , 18°C
Humidity: 94%
Barometer: 30.15 inHg , 1021 hPa
Summary: Mist
Clouds: Overcast
Visibility: 3 miles , 5 km
Cloud details: Partly cloudy 700 ft
Overcast 3400 ft
2019/09/15 06:02 KSMQ 150602Z AUTO 00000KT 3SM BR SCT007 OVC034 19/18 A3015 RMK AO2 T01890183
 
KBLM - Belmar/Farmdale, NJ, USA
Distance from Hoboken: S 40mi, 64km
Updated: 09/15/2019 1:56am
Overcast
Overcast
 Wind from WSW
Wind: WSW 3 mph , 6 km/h
Temperature: 70°F , 21°C
Dew Point: 70°F , 21°C
Humidity: 100%
Barometer: 30.19 inHg , 1022.4 hPa
Clouds: Overcast
Visibility: 10 miles , 16 km
Cloud details: Overcast 3300 ft
2019/09/15 05:56 KBLM 150556Z AUTO 25003KT 10SM OVC033 21/21 A3019 RMK AO2 RAB19E42 SLP222 P0003 60003 T02060206 10228 20206 55003
K12N - Andover, NJ, USA
Distance from Hoboken: WNW 41mi, 67km
Updated: 09/15/2019 1:54am

 Wind from SSW
Wind: SSW 3 mph , 6 km/h
Temperature: 63°F , 17°C
Dew Point: 63°F , 17°C
Humidity: 100%
Barometer: 30.18 inHg , 1022 hPa
2019/09/15 05:54 K12N 150554Z AUTO 21003KT 17/17 A3018 RMK AO1 SLP216 T01720167 10194 20172 55005 $
 
KFWN - Sussex, NJ, USA
Distance from Hoboken: NW 45mi, 72km
Updated: 09/15/2019 2:00am
Fog, Overcast
Fog, Overcast
 Wind from calm
Wind: Calm
Temperature: 64°F , 18°C
Dew Point: 63°F , 17°C
Humidity: 94%
Barometer: 30.18 inHg , 1022 hPa
Summary: Fog
Clouds: Overcast
Visibility: 1/2 mile , 0.8 km
Cloud details: Mostly cloudy 300 ft
Overcast 2200 ft
2019/09/15 06:00 KFWN 150600Z AUTO 00000KT 1/2SM FG BKN003 OVC022 18/17 A3018 RMK AO2 T01780172
KISP - Islip, NY, USA
Distance from Hoboken: E 49mi, 79km
Updated: 09/15/2019 2:14am
Overcast
Overcast
 Wind from SW
Wind: SW 7 mph , 11 km/h
Temperature: 72°F , 22°C
Dew Point: 70°F , 21°C
Humidity: 94%
Barometer: 30.15 inHg , 1021 hPa
Clouds: Overcast
Visibility: 10 miles , 16 km
Cloud details: Few Clouds 800 ft
Overcast 5000 ft
2019/09/15 06:14 KISP 150614Z AUTO 22006KT 10SM FEW008 OVC050 22/21 A3015 RMK AO2 T02170211